Time;durP1;ratioP1;P1;durP2;ratioP2;P2;SDS_P1;SDS_P2;PMS_P1;PMS_P2;Temp;Humidity;BMP_temperature;BMP_pressure;BME280_temperature;BME280_humidity;BME280_pressure;Samples;Min_cycle;Max_cycle;Signal;HPM_P1;HPM_P2
2021/12/09 00:00:58;;;;;;;59.77;24.30;;;-0.10;99.90;;;;;;4978356;28;20210;-78
2021/12/09 00:03:24;;;;;;;60.00;25.70;;;0.00;99.90;;;;;;4978890;28;20546;-78
2021/12/09 00:05:49;;;;;;;54.83;24.93;;;0.00;99.90;;;;;;4982205;28;20174;-78
2021/12/09 00:08:15;;;;;;;55.37;25.83;;;0.00;99.90;;;;;;4977984;28;20204;-77
2021/12/09 00:10:41;;;;;;;58.30;25.90;;;0.00;99.90;;;;;;4980326;28;20211;-78
2021/12/09 00:13:08;;;;;;;60.10;26.57;;;0.00;99.90;;;;;;4980196;28;20619;-77
2021/12/09 00:15:34;;;;;;;55.13;24.83;;;0.00;99.90;;;;;;4972456;28;20203;-76
2021/12/09 00:17:59;;;;;;;56.50;24.63;;;0.00;99.90;;;;;;4978841;28;20287;-76
2021/12/09 00:20:25;;;;;;;55.83;25.83;;;-0.10;99.90;;;;;;4973919;28;20343;-77
2021/12/09 00:22:50;;;;;;;57.23;26.50;;;-0.10;99.90;;;;;;4974209;28;20213;-79
2021/12/09 00:25:16;;;;;;;56.50;25.27;;;-0.20;99.90;;;;;;4977544;28;20429;-77
2021/12/09 00:27:42;;;;;;;55.60;26.07;;;-0.20;99.90;;;;;;4976464;28;20234;-78
2021/12/09 00:30:10;;;;;;;53.23;25.83;;;-0.20;99.90;;;;;;4973999;28;20262;-78
2021/12/09 00:32:36;;;;;;;54.97;25.00;;;-0.10;99.90;;;;;;4975184;28;20697;-78
2021/12/09 00:35:03;;;;;;;50.90;23.33;;;-0.10;99.90;;;;;;4973154;28;20223;-78
2021/12/09 00:37:36;;;;;;;56.10;23.03;;;-0.10;99.90;;;;;;4974977;28;20235;-78
2021/12/09 00:40:04;;;;;;;56.43;24.90;;;-0.20;99.90;;;;;;4977690;28;20219;-80
2021/12/09 00:42:30;;;;;;;51.83;24.23;;;-0.20;99.90;;;;;;4976345;28;20219;-79
2021/12/09 00:44:56;;;;;;;57.53;25.43;;;-0.20;99.90;;;;;;4979237;28;20554;-78
2021/12/09 00:47:23;;;;;;;60.60;26.80;;;-0.20;99.90;;;;;;4973643;28;20228;-80
2021/12/09 00:49:50;;;;;;;63.47;27.37;;;-0.20;99.90;;;;;;4974195;28;20211;-78
2021/12/09 00:52:16;;;;;;;60.40;26.23;;;-0.20;99.90;;;;;;4977040;28;20213;-78
2021/12/09 00:54:42;;;;;;;65.20;27.40;;;-0.20;99.90;;;;;;4974771;28;20219;-78
2021/12/09 00:57:09;;;;;;;66.53;28.97;;;-0.20;99.90;;;;;;4977465;28;20274;-77
2021/12/09 00:59:35;;;;;;;54.57;25.30;;;-0.20;99.90;;;;;;4983706;28;20209;-78
2021/12/09 01:02:01;;;;;;;62.57;26.87;;;-0.20;99.90;;;;;;4986351;28;20739;-78
2021/12/09 01:04:26;;;;;;;64.00;27.57;;;-0.20;99.90;;;;;;4980853;28;20293;-77
2021/12/09 01:06:52;;;;;;;64.93;27.17;;;-0.20;99.90;;;;;;4992305;28;20207;-79
2021/12/09 01:09:18;;;;;;;61.83;25.20;;;-0.20;99.90;;;;;;5010182;28;20218;-79
2021/12/09 01:11:44;;;;;;;67.00;26.83;;;-0.30;99.90;;;;;;5002946;28;20214;-82
2021/12/09 01:14:10;;;;;;;64.90;27.53;;;-0.30;99.90;;;;;;5001212;28;20213;-78
2021/12/09 01:16:36;;;;;;;65.03;29.60;;;-0.30;99.90;;;;;;5010036;28;20222;-78
2021/12/09 01:19:03;;;;;;;64.30;27.30;;;-0.30;99.90;;;;;;5012442;28;20287;-79
2021/12/09 01:21:28;;;;;;;73.73;29.40;;;-0.20;99.90;;;;;;5003795;28;20221;-78
2021/12/09 01:23:54;;;;;;;68.37;29.93;;;-0.20;99.90;;;;;;5004605;28;20190;-78
2021/12/09 01:26:19;;;;;;;66.20;28.10;;;-0.20;99.90;;;;;;5012140;28;20218;-78
2021/12/09 01:28:51;;;;;;;58.37;24.97;;;-0.20;99.90;;;;;;5010418;28;20224;-80
2021/12/09 01:31:23;;;;;;;67.57;29.53;;;-0.30;99.90;;;;;;5012296;28;20252;-78
2021/12/09 01:33:51;;;;;;;58.47;25.63;;;-0.30;99.90;;;;;;5010844;28;20221;-78
2021/12/09 01:36:17;;;;;;;57.47;25.10;;;-0.30;99.90;;;;;;5012602;28;20186;-78
2021/12/09 01:38:42;;;;;;;63.77;28.33;;;-0.30;99.90;;;;;;5011943;28;20216;-79
2021/12/09 01:41:08;;;;;;;58.83;26.90;;;-0.30;99.90;;;;;;5005031;28;20242;-79
2021/12/09 01:43:33;;;;;;;62.77;28.40;;;-0.20;99.90;;;;;;5001579;28;20209;-78
2021/12/09 01:46:03;;;;;;;67.70;28.93;;;-0.20;99.90;;;;;;5000492;28;20687;-78
2021/12/09 01:48:29;;;;;;;63.47;29.13;;;-0.10;99.90;;;;;;5001039;28;20613;-79
2021/12/09 01:50:54;;;;;;;61.93;27.90;;;-0.20;99.90;;;;;;5012261;28;20173;-78
2021/12/09 01:53:20;;;;;;;69.67;29.17;;;-0.20;99.90;;;;;;5012677;28;20217;-78
2021/12/09 01:55:45;;;;;;;65.50;29.13;;;-0.20;99.90;;;;;;5007634;28;20220;-78
2021/12/09 01:58:11;;;;;;;72.33;29.37;;;-0.30;99.90;;;;;;5004375;28;20228;-79
2021/12/09 02:00:38;;;;;;;66.00;28.70;;;-0.20;99.90;;;;;;5010954;28;20764;-79
2021/12/09 02:03:05;;;;;;;65.23;29.40;;;-0.20;99.90;;;;;;5012724;28;20630;-78
2021/12/09 02:05:32;;;;;;;75.93;31.17;;;-0.20;99.90;;;;;;5011349;28;20218;-79
2021/12/09 02:07:58;;;;;;;70.70;30.53;;;-0.30;99.90;;;;;;4993590;28;20211;-80
2021/12/09 02:10:24;;;;;;;77.80;31.67;;;-0.30;99.90;;;;;;5007702;28;20892;-77
2021/12/09 02:12:52;;;;;;;72.60;31.57;;;-0.30;99.90;;;;;;5002812;28;20205;-78
2021/12/09 02:15:21;;;;;;;75.33;31.13;;;-0.40;99.90;;;;;;5002784;28;20193;-78
2021/12/09 02:17:47;;;;;;;72.00;30.47;;;-0.30;99.90;;;;;;4989730;28;20628;-80
2021/12/09 02:20:13;;;;;;;67.87;29.77;;;-0.30;99.90;;;;;;5015410;28;20400;-81
2021/12/09 02:22:45;;;;;;;76.50;31.33;;;-0.30;99.90;;;;;;5015102;28;20210;-79
2021/12/09 02:25:10;;;;;;;66.37;29.40;;;-0.40;99.90;;;;;;5009718;28;20607;-78
2021/12/09 02:27:36;;;;;;;66.80;28.67;;;-0.40;99.90;;;;;;5006868;28;20225;-77
2021/12/09 02:30:03;;;;;;;68.13;28.97;;;-0.30;99.90;;;;;;5010319;28;20197;-79
2021/12/09 02:32:28;;;;;;;68.00;29.80;;;-0.40;99.90;;;;;;5012152;28;20212;-79
2021/12/09 02:34:54;;;;;;;69.40;31.37;;;-0.30;99.90;;;;;;5015317;28;20291;-78
2021/12/09 02:37:19;;;;;;;66.93;27.47;;;-0.30;99.90;;;;;;5015508;28;20202;-78
2021/12/09 02:39:45;;;;;;;69.07;26.10;;;-0.30;99.90;;;;;;5015589;28;20246;-79
2021/12/09 02:42:12;;;;;;;67.33;28.73;;;-0.40;99.90;;;;;;5007669;28;20180;-79
2021/12/09 02:44:38;;;;;;;66.77;29.40;;;-0.40;99.90;;;;;;5016250;28;20190;-79
2021/12/09 02:47:04;;;;;;;73.00;30.67;;;-0.30;99.90;;;;;;5007117;28;20209;-79
2021/12/09 02:49:31;;;;;;;62.70;25.60;;;-0.40;99.90;;;;;;5015789;28;20217;-79
2021/12/09 02:51:59;;;;;;;70.37;29.87;;;-0.30;99.90;;;;;;5014614;28;20213;-79
2021/12/09 02:54:26;;;;;;;66.47;29.40;;;-0.40;99.90;;;;;;5010704;28;20242;-79
2021/12/09 02:56:57;;;;;;;71.27;28.07;;;-0.40;99.90;;;;;;5016126;28;20227;-79
2021/12/09 02:59:23;;;;;;;71.00;30.53;;;-0.40;99.90;;;;;;5007398;28;20209;-79
2021/12/09 03:02:00;;;;;;;65.07;28.67;;;-0.40;99.90;;;;;;5016133;28;20213;-80
2021/12/09 03:04:42;;;;;;;73.97;30.53;;;-0.40;99.90;;;;;;5006932;28;20217;-79
2021/12/09 03:07:14;;;;;;;69.13;29.30;;;-0.30;99.90;;;;;;4998257;28;20205;-79
2021/12/09 03:09:48;;;;;;;71.87;29.83;;;-0.30;99.90;;;;;;4994444;28;20215;-79
2021/12/09 03:12:18;;;;;;;67.13;28.63;;;-0.30;99.90;;;;;;4994769;28;20175;-79
2021/12/09 03:14:43;;;;;;;66.80;30.00;;;-0.30;99.90;;;;;;4996371;28;20186;-79
2021/12/09 03:17:09;;;;;;;70.13;29.20;;;-0.30;99.90;;;;;;4996286;28;20212;-79
2021/12/09 03:19:34;;;;;;;64.13;29.17;;;-0.30;99.90;;;;;;4994190;28;20232;-79
2021/12/09 03:22:00;;;;;;;62.83;30.23;;;-0.30;99.90;;;;;;4994270;28;20269;-79
2021/12/09 03:24:25;;;;;;;73.20;31.80;;;-0.50;99.90;;;;;;4995061;28;20193;-79
2021/12/09 03:26:57;;;;;;;71.30;29.73;;;-0.30;99.90;;;;;;4994567;28;20671;-78
2021/12/09 03:29:25;;;;;;;73.27;30.67;;;-0.30;99.90;;;;;;4991144;28;20209;-78
2021/12/09 03:31:54;;;;;;;61.13;28.70;;;-0.30;99.90;;;;;;4992869;28;20212;-78
2021/12/09 03:34:21;;;;;;;75.13;30.03;;;-0.30;99.90;;;;;;4994282;28;20644;-78
2021/12/09 03:36:49;;;;;;;66.93;29.10;;;-0.30;99.90;;;;;;4993991;28;20245;-78
2021/12/09 03:39:18;;;;;;;71.00;30.17;;;-0.30;99.90;;;;;;4992864;28;20219;-78
2021/12/09 03:41:55;;;;;;;75.37;31.23;;;-0.40;99.90;;;;;;5031762;22;20240;-80
2021/12/09 03:44:48;;;;;;;69.70;30.70;;;-0.40;99.90;;;;;;5052122;28;20319;-79
2021/12/09 03:47:39;;;;;;;71.83;28.90;;;-0.30;99.90;;;;;;5036042;28;20235;-80
2021/12/09 03:50:11;;;;;;;66.40;29.20;;;-0.30;99.90;;;;;;5042010;28;20215;-80
2021/12/09 03:53:04;;;;;;;69.33;31.40;;;-0.40;99.90;;;;;;5024595;28;20213;-80
2021/12/09 03:55:55;;;;;;;69.77;31.27;;;-0.40;99.90;;;;;;5020319;28;20309;-82
2021/12/09 03:58:36;;;;;;;71.27;28.30;;;-0.50;99.90;;;;;;5029649;28;20200;-79
2021/12/09 04:04:28;;;;;;;74.60;30.77;;;-0.50;99.90;;;;;;5019572;28;20213;-80
2021/12/09 04:07:30;;;;;;;76.63;32.70;;;-0.40;99.90;;;;;;5028043;28;20209;-79
2021/12/09 04:10:07;;;;;;;70.23;31.47;;;-0.40;99.90;;;;;;5019216;28;20213;-80
2021/12/09 04:12:39;;;;;;;71.73;31.17;;;-0.50;99.90;;;;;;5024551;28;20247;-79
2021/12/09 04:15:43;;;;;;;69.30;31.60;;;-0.50;99.90;;;;;;5028826;28;20178;-81
2021/12/09 04:18:20;;;;;;;72.87;31.60;;;-0.40;99.90;;;;;;5014759;28;20209;-82
2021/12/09 04:21:04;;;;;;;74.43;31.37;;;-0.50;99.90;;;;;;5028537;28;20178;-80
2021/12/09 04:23:42;;;;;;;65.07;31.13;;;-0.40;99.90;;;;;;5027771;28;20220;-80
2021/12/09 04:26:27;;;;;;;76.57;30.43;;;-0.40;99.90;;;;;;5028441;28;20209;-81
2021/12/09 04:29:14;;;;;;;72.03;30.33;;;-0.40;99.90;;;;;;5033363;28;20212;-80
2021/12/09 04:31:41;;;;;;;71.30;30.30;;;-0.40;99.90;;;;;;5014263;28;20344;-80
2021/12/09 04:34:10;;;;;;;73.07;31.17;;;-0.40;99.90;;;;;;5019461;28;20223;-79
2021/12/09 04:36:39;;;;;;;66.67;30.47;;;-0.40;99.90;;;;;;5015609;28;20708;-80
2021/12/09 04:39:11;;;;;;;61.17;28.57;;;-0.40;99.90;;;;;;5025189;28;20737;-79
2021/12/09 04:41:42;;;;;;;67.03;30.63;;;-0.40;99.90;;;;;;5021929;28;20233;-79
2021/12/09 04:44:18;;;;;;;71.70;30.73;;;-0.50;99.90;;;;;;5023423;28;20690;-79
2021/12/09 04:46:44;;;;;;;69.70;31.00;;;-0.40;99.90;;;;;;5022777;28;20220;-80
2021/12/09 04:49:12;;;;;;;65.80;29.13;;;-0.40;99.90;;;;;;5021137;28;20277;-80
2021/12/09 04:51:40;;;;;;;68.13;31.57;;;-0.30;99.90;;;;;;5015712;28;20220;-80
2021/12/09 04:54:08;;;;;;;69.60;30.53;;;-0.20;99.90;;;;;;5023433;28;20195;-79
2021/12/09 04:56:38;;;;;;;67.03;29.83;;;-0.30;99.90;;;;;;5016521;28;20205;-79
2021/12/09 04:59:04;;;;;;;71.53;31.60;;;-0.30;99.90;;;;;;5015657;28;20220;-78
2021/12/09 05:01:33;;;;;;;71.87;30.13;;;-0.30;99.90;;;;;;5016090;28;20915;-78
2021/12/09 05:04:05;;;;;;;68.33;30.73;;;-0.20;99.90;;;;;;5018337;28;20208;-79
2021/12/09 05:06:31;;;;;;;65.30;29.13;;;-0.20;99.90;;;;;;5013656;28;20270;-79
2021/12/09 05:09:08;;;;;;;67.90;30.30;;;-0.20;99.90;;;;;;5016729;28;20183;-80
2021/12/09 05:11:48;;;;;;;69.00;28.87;;;-0.10;99.90;;;;;;5023264;28;20285;-79
2021/12/09 05:14:29;;;;;;;68.77;31.27;;;-0.20;99.90;;;;;;5014970;28;20301;-79
2021/12/09 05:16:55;;;;;;;63.80;30.23;;;-0.20;99.90;;;;;;5039643;28;20240;-78
2021/12/09 05:19:21;;;;;;;61.10;28.70;;;-0.30;99.90;;;;;;5026872;28;20291;-78
2021/12/09 05:21:50;;;;;;;62.73;28.90;;;-0.30;99.90;;;;;;5040400;28;20605;-78
2021/12/09 05:24:16;;;;;;;60.13;28.77;;;-0.30;99.90;;;;;;5029947;28;20581;-79
2021/12/09 05:27:02;;;;;;;69.87;28.37;;;-0.30;99.90;;;;;;5020421;28;20176;-79
2021/12/09 05:29:32;;;;;;;84.17;39.13;;;-0.40;99.90;;;;;;5025729;28;20208;-79
2021/12/09 05:32:08;;;;;;;70.30;31.90;;;-0.40;99.90;;;;;;5025706;28;20216;-79
2021/12/09 05:34:37;;;;;;;69.67;29.77;;;-0.30;99.90;;;;;;5006874;28;20671;-79
2021/12/09 05:37:15;;;;;;;67.73;29.03;;;-0.30;99.90;;;;;;5024076;28;20213;-79
2021/12/09 05:40:43;;;;;;;66.57;30.27;;;-0.30;99.90;;;;;;5025689;28;20220;-79
2021/12/09 05:43:34;;;;;;;68.23;29.93;;;-0.40;99.90;;;;;;5004639;28;20246;-80
2021/12/09 05:46:53;;;;;;;67.03;29.57;;;-0.40;99.90;;;;;;5023694;28;20260;-80
2021/12/09 05:49:51;;;;;;;66.30;29.70;;;-0.30;99.90;;;;;;5019927;28;20213;-79
2021/12/09 05:52:42;;;;;;;69.23;29.03;;;-0.30;99.90;;;;;;5034300;28;20215;-80
2021/12/09 05:55:11;;;;;;;70.60;28.40;;;-0.40;99.90;;;;;;5028922;28;20212;-80
2021/12/09 05:57:48;;;;;;;69.57;31.60;;;-0.40;99.90;;;;;;5047534;28;20220;-79
2021/12/09 06:00:20;;;;;;;65.23;28.37;;;-0.40;99.90;;;;;;5046380;28;20200;-79
2021/12/09 06:02:45;;;;;;;68.97;29.50;;;-0.30;99.90;;;;;;5048238;28;20197;-80
2021/12/09 06:05:11;;;;;;;63.60;28.17;;;-0.30;99.90;;;;;;5040450;28;20217;-81
2021/12/09 06:07:42;;;;;;;70.37;31.57;;;-0.30;99.90;;;;;;5039362;28;20202;-79
2021/12/09 06:10:11;;;;;;;61.37;28.97;;;-0.30;99.90;;;;;;5051820;28;20206;-80
2021/12/09 06:12:37;;;;;;;63.43;28.40;;;-0.30;99.90;;;;;;5038719;28;20998;-80
2021/12/09 06:15:19;;;;;;;66.60;30.63;;;-0.30;99.90;;;;;;5046238;28;20191;-80
2021/12/09 06:17:52;;;;;;;64.60;29.07;;;-0.30;99.90;;;;;;5048207;28;20293;-79
2021/12/09 06:20:34;;;;;;;65.83;27.83;;;-0.30;99.90;;;;;;5045598;28;20236;-79
2021/12/09 06:23:00;;;;;;;62.43;26.63;;;-0.20;99.90;;;;;;5048635;28;20214;-80
2021/12/09 06:25:31;;;;;;;61.30;28.20;;;-0.10;99.90;;;;;;5047270;28;20272;-79
2021/12/09 06:28:03;;;;;;;68.33;28.17;;;-0.20;99.90;;;;;;5047350;28;20205;-81
2021/12/09 06:30:31;;;;;;;66.23;27.60;;;-0.20;99.90;;;;;;5039863;28;20259;-78
2021/12/09 06:32:58;;;;;;;73.73;29.80;;;-0.10;99.90;;;;;;5049463;28;20236;-80
2021/12/09 06:35:31;;;;;;;63.23;28.37;;;-0.20;99.90;;;;;;5038706;28;20204;-79
2021/12/09 06:38:00;;;;;;;63.97;29.10;;;-0.20;99.90;;;;;;5046424;28;20217;-80
2021/12/09 06:40:30;;;;;;;64.93;29.87;;;-0.10;99.90;;;;;;5047578;28;20217;-79
2021/12/09 06:43:07;;;;;;;67.57;30.20;;;-0.30;99.90;;;;;;5038096;28;20247;-81
2021/12/09 06:45:41;;;;;;;65.50;28.27;;;-0.30;99.90;;;;;;5044533;28;20226;-80
2021/12/09 06:48:14;;;;;;;72.07;30.80;;;-0.30;99.90;;;;;;5049521;28;20212;-82
2021/12/09 06:50:40;;;;;;;74.13;31.37;;;-0.40;99.90;;;;;;5042344;28;20241;-79
2021/12/09 06:53:41;;;;;;;68.00;31.13;;;-0.30;99.90;;;;;;5033451;28;20212;-78
2021/12/09 06:56:32;;;;;;;72.33;32.03;;;-0.20;99.90;;;;;;5027607;28;20228;-79
2021/12/09 06:59:13;;;;;;;70.87;30.57;;;-0.30;99.90;;;;;;5024659;28;20242;-79
2021/12/09 07:02:05;;;;;;;72.23;29.50;;;-0.30;99.90;;;;;;5033966;28;20229;-80
2021/12/09 07:04:31;;;;;;;67.57;30.67;;;-0.20;99.90;;;;;;5030695;28;20213;-80
2021/12/09 07:09:41;;;;;;;73.17;32.23;;;-0.20;99.90;;;;;;5252567;22;20230;-80
2021/12/09 07:12:36;;;;;;;72.40;33.77;;;-0.10;99.90;;;;;;5067691;28;20213;-80
2021/12/09 07:15:08;;;;;;;71.03;31.07;;;-0.10;99.90;;;;;;5064662;28;20212;-82
2021/12/09 07:17:35;;;;;;;73.07;32.33;;;-0.20;99.90;;;;;;5059591;28;20208;-79
2021/12/09 07:20:01;;;;;;;71.10;33.07;;;-0.10;99.90;;;;;;5057898;28;20239;-80
2021/12/09 07:22:32;;;;;;;72.27;32.80;;;-0.10;99.90;;;;;;5066219;28;20517;-82
2021/12/09 07:24:59;;;;;;;70.43;31.77;;;-0.20;99.90;;;;;;5069135;28;20214;-81
2021/12/09 07:27:30;;;;;;;71.50;31.90;;;-0.20;99.90;;;;;;5068983;28;20178;-79
2021/12/09 07:30:21;;;;;;;87.07;36.97;;;0.00;99.90;;;;;;5069534;28;20186;-79
2021/12/09 07:32:48;;;;;;;76.80;32.30;;;-0.10;99.90;;;;;;5070322;28;20216;-81
2021/12/09 07:35:15;;;;;;;82.00;32.77;;;-0.10;99.90;;;;;;5067336;28;20230;-81
2021/12/09 07:37:56;;;;;;;76.73;32.00;;;-0.10;99.90;;;;;;5067153;28;20239;-79
2021/12/09 07:40:30;;;;;;;79.73;32.13;;;-0.10;99.90;;;;;;5053942;28;20226;-79
2021/12/09 07:42:59;;;;;;;76.47;34.33;;;-0.20;99.90;;;;;;5041368;28;20246;-80
2021/12/09 07:46:15;;;;;;;79.00;32.77;;;-0.20;99.90;;;;;;5045315;28;20192;-80
2021/12/09 07:51:55;;;;;;;77.20;31.97;;;-0.30;99.90;;;;;;5029832;28;20208;-80
2021/12/09 07:54:22;;;;;;;74.77;33.93;;;-0.20;99.90;;;;;;5064481;28;20222;-80
2021/12/09 07:56:57;;;;;;;79.40;33.40;;;-0.20;99.90;;;;;;5060762;28;20189;-80
2021/12/09 07:59:23;;;;;;;79.93;34.33;;;-0.10;99.90;;;;;;5067019;28;20235;-80
2021/12/09 08:05:19;;;;;;;84.43;34.30;;;-0.30;99.90;;;;;;5029848;28;20273;-80
2021/12/09 08:07:50;;;;;;;75.00;31.93;;;-0.40;99.90;;;;;;5058324;28;20203;-78
2021/12/09 08:11:11;;;;;;;71.60;33.17;;;-0.30;99.90;;;;;;5047338;28;20231;-79
2021/12/09 08:13:30;;;;;;;80.03;32.53;;;-0.30;99.90;;;;;;5050156;28;20228;-80
2021/12/09 08:16:06;;;;;;;77.90;31.87;;;-0.30;99.90;;;;;;5060819;28;20219;-80
2021/12/09 08:19:17;;;;;;;;;;;;;;;;;;;;;
2021/12/09 08:22:27;;;;;;;79.70;32.83;;;-0.30;99.90;;;;;;5063206;28;20244;-80
2021/12/09 08:25:20;;;;;;;76.53;34.13;;;-0.20;99.90;;;;;;5044092;28;20203;-79
2021/12/09 08:28:00;;;;;;;75.27;33.10;;;-0.30;99.90;;;;;;5051983;28;20629;-83
2021/12/09 08:30:53;;;;;;;75.30;32.70;;;-0.20;99.90;;;;;;5047954;28;20223;-80
2021/12/09 08:33:39;;;;;;;80.63;33.70;;;-0.20;99.90;;;;;;5032563;28;20593;-79
2021/12/09 08:36:22;;;;;;;75.77;31.97;;;-0.20;99.90;;;;;;5052992;28;20196;-80
2021/12/09 08:39:21;;;;;;;80.47;33.50;;;-0.30;99.90;;;;;;5039997;28;20229;-81
2021/12/09 08:42:35;;;;;;;74.47;34.03;;;-0.20;99.90;;;;;;5044135;28;20251;-80
2021/12/09 08:45:09;;;;;;;73.57;31.80;;;-0.20;99.90;;;;;;4988772;28;20654;-79
2021/12/09 08:48:09;;;;;;;81.27;32.43;;;-0.20;99.90;;;;;;5065443;28;20680;-80
2021/12/09 08:50:54;;;;;;;72.73;32.83;;;-0.10;99.90;;;;;;5046375;28;20703;-78
2021/12/09 08:53:42;;;;;;;74.23;33.83;;;-0.30;99.90;;;;;;5043467;28;20229;-78
2021/12/09 08:56:25;;;;;;;72.50;32.63;;;-0.30;99.90;;;;;;5035347;28;20229;-80
2021/12/09 08:58:59;;;;;;;74.10;32.70;;;-0.20;99.90;;;;;;5056091;28;20225;-79
2021/12/09 09:01:42;;;;;;;78.00;33.57;;;-0.20;99.90;;;;;;5058531;28;20239;-80
2021/12/09 09:04:26;;;;;;;78.57;33.37;;;-0.20;99.90;;;;;;5019671;28;20289;-80
2021/12/09 09:07:28;;;;;;;77.90;32.97;;;-0.10;99.90;;;;;;5045746;28;20253;-81
2021/12/09 09:09:55;;;;;;;72.30;32.80;;;-0.10;99.90;;;;;;4790613;28;7090426;-79
2021/12/09 09:12:23;;;;;;;73.77;33.63;;;0.00;99.90;;;;;;5027037;28;20206;-81
2021/12/09 09:14:57;;;;;;;78.63;33.97;;;0.10;99.90;;;;;;5037214;28;20298;-78
2021/12/09 09:17:34;;;;;;;83.47;35.30;;;0.20;99.90;;;;;;5027322;28;20217;-78
2021/12/09 09:19:59;;;;;;;74.40;33.03;;;0.00;99.90;;;;;;5030899;28;20220;-78
2021/12/09 09:22:25;;;;;;;74.03;34.17;;;0.10;99.90;;;;;;5051185;28;20210;-76
2021/12/09 09:24:50;;;;;;;80.20;33.50;;;0.30;99.90;;;;;;5046943;28;20242;-72
2021/12/09 09:27:17;;;;;;;72.13;34.23;;;0.40;99.90;;;;;;5051890;28;20175;-72
2021/12/09 09:29:43;;;;;;;74.00;33.73;;;0.30;99.90;;;;;;5037613;28;20222;-75
2021/12/09 09:32:11;;;;;;;76.40;33.80;;;0.10;99.90;;;;;;5054977;28;20272;-72
2021/12/09 09:34:36;;;;;;;71.80;32.60;;;0.00;99.90;;;;;;5056148;28;20324;-72
2021/12/09 09:37:04;;;;;;;75.07;34.07;;;0.00;99.90;;;;;;5051290;28;20288;-73
2021/12/09 09:39:31;;;;;;;71.20;32.87;;;0.00;99.90;;;;;;5054731;28;20215;-72
2021/12/09 09:42:18;;;;;;;77.70;33.93;;;0.10;99.90;;;;;;5060980;22;20370;-78
2021/12/09 09:44:54;;;;;;;78.30;34.97;;;0.10;99.90;;;;;;5092229;28;20254;-76
2021/12/09 09:47:21;;;;;;;70.13;33.07;;;0.10;99.90;;;;;;5084944;28;20227;-76
2021/12/09 09:49:47;;;;;;;74.50;34.10;;;0.10;99.90;;;;;;5082692;28;20675;-77
2021/12/09 09:52:13;;;;;;;79.00;33.33;;;0.10;99.90;;;;;;5091318;28;20221;-78
2021/12/09 09:54:39;;;;;;;72.77;33.83;;;0.20;99.90;;;;;;5084792;28;20204;-77
2021/12/09 09:57:06;;;;;;;75.40;33.17;;;0.30;99.90;;;;;;5091306;28;20180;-79
2021/12/09 09:59:32;;;;;;;68.30;30.93;;;0.30;99.90;;;;;;5091357;28;20242;-79
2021/12/09 10:01:58;;;;;;;74.67;33.57;;;0.40;99.90;;;;;;5079979;28;20710;-77
2021/12/09 10:04:44;;;;;;;79.43;33.23;;;0.50;99.90;;;;;;5067601;28;20214;-74
2021/12/09 10:07:11;;;;;;;78.03;33.80;;;0.50;99.90;;;;;;5081403;28;20207;-74
2021/12/09 10:09:37;;;;;;;69.10;32.27;;;0.60;99.90;;;;;;5075966;28;20290;-75
2021/12/09 10:12:03;;;;;;;77.23;33.97;;;0.80;99.90;;;;;;5082557;28;20640;-74
2021/12/09 10:14:34;;;;;;;70.37;33.73;;;0.60;99.90;;;;;;5075490;28;20681;-74
2021/12/09 10:17:12;;;;;;;71.83;32.30;;;0.50;99.90;;;;;;5080548;28;20207;-75
2021/12/09 10:19:40;;;;;;;70.50;32.23;;;0.30;99.90;;;;;;5080434;28;20221;-74
2021/12/09 10:22:20;;;;;;;76.13;34.77;;;0.40;99.90;;;;;;5058514;28;20242;-74
2021/12/09 10:24:48;;;;;;;69.37;32.20;;;0.50;99.90;;;;;;5078507;28;20677;-74
2021/12/09 10:27:22;;;;;;;68.83;32.23;;;0.50;99.90;;;;;;5051796;28;20681;-74
2021/12/09 10:29:47;;;;;;;72.27;33.83;;;0.50;99.90;;;;;;5078733;28;20173;-74
2021/12/09 10:32:25;;;;;;;73.50;34.77;;;0.40;99.90;;;;;;5078503;28;20250;-74
2021/12/09 10:34:51;;;;;;;76.30;33.93;;;0.40;99.90;;;;;;5078091;28;20210;-74
2021/12/09 10:37:21;;;;;;;74.60;32.90;;;0.40;99.90;;;;;;5052019;28;20209;-73
2021/12/09 10:40:17;;;;;;;74.27;32.63;;;0.30;99.90;;;;;;5059737;28;20222;-74
2021/12/09 10:42:51;;;;;;;73.83;32.33;;;0.30;99.90;;;;;;5062104;28;20280;-74
2021/12/09 10:45:37;;;;;;;64.90;30.57;;;0.20;99.90;;;;;;5062640;28;20175;-74
2021/12/09 10:51:07;;;;;;;68.30;31.50;;;0.50;99.90;;;;;;5090328;28;20642;-74
2021/12/09 10:53:46;;;;;;;75.77;34.53;;;0.60;99.90;;;;;;5082922;28;20305;-74
2021/12/09 10:56:13;;;;;;;70.33;32.47;;;0.80;99.90;;;;;;5081531;28;20217;-74
2021/12/09 10:58:46;;;;;;;72.80;32.70;;;0.70;99.90;;;;;;5083569;28;20202;-74
2021/12/09 11:01:18;;;;;;;67.13;30.93;;;0.80;99.90;;;;;;5077701;28;20283;-74
2021/12/09 11:04:13;;;;;;;71.53;32.73;;;0.70;99.90;;;;;;5081500;28;20199;-76
2021/12/09 11:06:39;;;;;;;62.97;29.83;;;0.70;99.90;;;;;;5053254;28;20237;-75
2021/12/09 11:09:12;;;;;;;67.03;30.40;;;0.60;99.90;;;;;;5079103;28;20176;-79
2021/12/09 11:11:41;;;;;;;63.17;30.27;;;0.60;99.90;;;;;;5082828;28;20236;-74
2021/12/09 11:14:17;;;;;;;62.00;30.50;;;0.70;99.90;;;;;;5093430;28;20869;-76
2021/12/09 11:16:44;;;;;;;67.43;31.27;;;0.50;99.90;;;;;;5087696;28;20679;-77
2021/12/09 11:19:19;;;;;;;67.43;31.07;;;0.50;99.90;;;;;;5077345;28;20654;-79
2021/12/09 11:21:56;;;;;;;69.83;32.07;;;0.60;99.90;;;;;;5080822;28;20198;-75
2021/12/09 11:24:26;;;;;;;64.97;30.47;;;0.50;99.90;;;;;;5081023;28;20179;-75
2021/12/09 11:26:59;;;;;;;60.50;29.27;;;0.50;99.90;;;;;;5080761;28;20525;-77
2021/12/09 11:29:35;;;;;;;68.33;29.90;;;0.50;99.90;;;;;;5081831;28;20216;-78
2021/12/09 11:32:11;;;;;;;65.67;30.93;;;0.60;99.90;;;;;;5084897;28;20214;-77
2021/12/09 11:34:56;;;;;;;62.33;30.47;;;0.50;99.90;;;;;;5063945;28;20211;-78
2021/12/09 11:39:55;;;;;;;70.13;30.47;;;0.70;99.90;;;;;;5080219;28;20225;-77
2021/12/09 11:42:29;;;;;;;64.97;30.17;;;0.70;99.90;;;;;;5070448;28;20211;-78
2021/12/09 11:44:57;;;;;;;63.50;30.10;;;0.70;99.90;;;;;;5088895;28;20184;-75
2021/12/09 11:47:23;;;;;;;64.97;30.23;;;0.60;99.90;;;;;;5083925;28;20204;-79
2021/12/09 11:49:51;;;;;;;62.70;29.27;;;0.50;99.90;;;;;;5065823;28;20201;-77
2021/12/09 11:52:19;;;;;;;67.97;31.97;;;0.50;99.90;;;;;;5085440;28;20695;-78
2021/12/09 11:54:54;;;;;;;67.97;31.93;;;0.50;99.90;;;;;;5071317;28;20196;-78
2021/12/09 12:18:45;;;;;;;60.23;29.47;;;0.60;99.90;;;;;;5088264;28;20651;-76
2021/12/09 12:21:36;;;;;;;67.60;29.57;;;0.60;99.90;;;;;;5064567;28;20230;-74
2021/12/09 12:24:35;;;;;;;68.20;30.23;;;0.50;99.90;;;;;;5082905;28;20187;-76
2021/12/09 12:27:16;;;;;;;68.90;32.20;;;0.60;99.90;;;;;;5056383;28;20209;-78
2021/12/09 12:32:42;;;;;;;65.13;29.93;;;0.90;99.90;;;;;;5083409;28;20224;-76
2021/12/09 12:40:43;;;;;;;66.60;32.27;;;0.60;99.90;;;;;;5081461;28;20692;-77
2021/12/09 12:43:17;;;;;;;71.93;32.40;;;0.80;99.90;;;;;;5079469;28;20216;-75
2021/12/09 12:51:14;;;;;;;73.97;32.87;;;0.60;99.90;;;;;;5080384;28;20552;-79
2021/12/09 12:53:44;;;;;;;64.83;30.83;;;0.50;99.90;;;;;;5092402;28;20231;-79
2021/12/09 12:56:18;;;;;;;68.63;31.30;;;0.50;99.90;;;;;;5066602;28;20251;-77
2021/12/09 12:59:06;;;;;;;71.97;33.53;;;0.50;99.90;;;;;;5062200;28;20601;-76
2021/12/09 13:01:34;;;;;;;70.70;31.50;;;0.40;99.90;;;;;;5079835;28;20212;-78
2021/12/09 13:04:12;;;;;;;66.53;31.03;;;0.50;99.90;;;;;;5059928;28;20214;-76
2021/12/09 13:06:48;;;;;;;72.77;33.17;;;0.50;99.90;;;;;;5080552;28;20707;-77
2021/12/09 13:09:52;;;;;;;73.13;33.53;;;0.60;99.90;;;;;;5060279;28;20180;-76
2021/12/09 13:12:11;;;;;;;81.00;33.80;;;0.70;99.90;;;;;;5079010;28;20210;-79
2021/12/09 13:15:08;;;;;;;72.77;33.50;;;0.60;99.90;;;;;;5081998;28;20221;-79
2021/12/09 13:17:47;;;;;;;74.93;33.67;;;0.70;99.90;;;;;;5061144;28;20218;-77
2021/12/09 13:20:31;;;;;;;70.87;33.67;;;0.70;99.90;;;;;;5079245;28;20261;-75
2021/12/09 13:23:23;;;;;;;70.53;32.70;;;0.80;99.90;;;;;;5079169;28;20766;-77
2021/12/09 13:26:14;;;;;;;68.17;32.73;;;0.80;99.90;;;;;;5079389;28;20647;-74
2021/12/09 13:29:32;;;;;;;80.37;35.23;;;0.80;99.90;;;;;;5081618;28;20365;-77
2021/12/09 13:32:14;;;;;;;69.63;32.83;;;0.70;99.90;;;;;;5058042;28;20208;-76
2021/12/09 13:34:51;;;;;;;69.50;31.13;;;0.70;99.90;;;;;;5079904;28;20204;-77
2021/12/09 13:46:13;;;;;;;70.97;31.57;;;0.70;99.90;;;;;;5086470;28;20256;-74
2021/12/09 13:48:27;;;;;;;68.73;30.37;;;0.60;99.90;;;;;;5076410;28;20190;-74
2021/12/09 13:51:00;;;;;;;72.03;33.77;;;0.60;99.90;;;;;;5068725;28;20180;-73
2021/12/09 13:56:10;;;;;;;79.03;34.43;;;0.60;99.90;;;;;;5089441;28;20208;-73
2021/12/09 13:58:35;;;;;;;76.63;34.17;;;0.70;99.90;;;;;;5087835;28;20286;-74
2021/12/09 14:01:02;;;;;;;72.13;33.73;;;0.50;99.90;;;;;;5076986;28;20692;-75
2021/12/09 14:03:28;;;;;;;71.40;32.03;;;0.70;99.90;;;;;;5063415;28;22564;-78
2021/12/09 14:05:59;;;;;;;75.73;34.03;;;0.60;99.90;;;;;;5074026;28;20170;-75
2021/12/09 14:08:38;;;;;;;68.40;31.97;;;0.70;99.90;;;;;;5079541;28;20218;-73